LSHC weather

Collombey-Muraz Heliport
Collombey-Muraz, Canton of Valais, Switzerland

Public forecast

Using degrees Celsius for public forecast. Weather courtesy of forecast.io.

METAR (pilot weather report)

Closest report is Sion Airport, 15.5 nm (28.7 km) E. Retrieved 2019/07/16 15:20 UTC (10 minutes ago):

LSGS 161520Z 25014KT 9999 FEW090 28/13 Q1013

TAF (pilot weather forecast)

Closest forecast is Payerne Air Base, 34.6 nm (64.0 km) N. Retrieved 2019/07/16 10:00 UTC (6 hours ago):

TAF LSMP 160925Z 1610/1716 07006KT CAVOK